createdAt,value
2022-08-26T00:04:48.620Z,1.00
2022-08-26T00:09:54.485Z,2.30
2022-08-26T00:15:00.634Z,1.10
2022-08-26T00:20:04.953Z,1.70
2022-08-26T00:25:10.488Z,1.03
2022-08-26T00:30:22.913Z,1.10
2022-08-26T00:35:29.221Z,0.80
2022-08-26T00:40:38.878Z,0.90
2022-08-26T00:45:48.100Z,1.40
2022-08-26T00:50:55.752Z,0.90
2022-08-26T00:56:04.528Z,1.07
2022-08-26T01:01:11.248Z,1.27
2022-08-26T01:06:15.875Z,2.73
2022-08-26T01:11:20.027Z,1.20
2022-08-26T01:16:25.824Z,1.40
2022-08-26T01:21:35.973Z,1.20
2022-08-26T01:26:46.333Z,1.40
2022-08-26T01:31:55.167Z,1.33
2022-08-26T01:37:03.442Z,1.60
2022-08-26T01:42:14.585Z,1.70
2022-08-26T01:47:20.959Z,1.63
2022-08-26T01:52:28.219Z,2.37
2022-08-26T01:57:33.848Z,1.97
2022-08-26T02:02:38.024Z,2.53
2022-08-26T02:07:43.007Z,3.17
2022-08-26T02:12:48.119Z,3.43
2022-08-26T02:17:53.201Z,3.53
2022-08-26T02:22:56.848Z,3.53
2022-08-26T02:28:02.328Z,3.63
2022-08-26T02:33:06.884Z,3.73
2022-08-26T02:38:11.623Z,3.83
2022-08-26T02:43:16.970Z,4.60
2022-08-26T02:48:22.408Z,4.53
2022-08-26T02:53:26.041Z,5.67
2022-08-26T02:58:31.721Z,4.57
2022-08-26T03:03:35.518Z,4.67
2022-08-26T03:08:39.234Z,4.33
2022-08-26T03:13:44.658Z,5.23
2022-08-26T03:18:52.104Z,4.67
2022-08-26T03:23:58.744Z,4.73
2022-08-26T03:29:21.687Z,4.17
2022-08-26T03:34:25.331Z,5.10
2022-08-26T03:39:31.614Z,3.87
2022-08-26T03:44:37.733Z,4.73
2022-08-26T03:49:46.080Z,3.97
2022-08-26T03:54:49.961Z,4.13
2022-08-26T03:59:54.970Z,3.83
2022-08-26T04:04:58.611Z,4.17
2022-08-26T04:10:02.483Z,4.10
2022-08-26T04:15:09.133Z,4.30
2022-08-26T04:20:16.268Z,3.83
2022-08-26T04:25:20.646Z,6.03
2022-08-26T04:30:25.756Z,3.80
2022-08-26T04:35:29.565Z,4.53
2022-08-26T04:40:33.276Z,3.83
2022-08-26T04:45:39.058Z,5.60
2022-08-26T04:50:43.103Z,5.17
2022-08-26T04:55:48.542Z,4.53
2022-08-26T05:00:56.320Z,5.27
2022-08-26T05:06:00.072Z,4.37
2022-08-26T05:11:05.991Z,5.10
2022-08-26T05:16:13.706Z,5.37
2022-08-26T05:21:20.018Z,6.13
2022-08-26T05:26:25.777Z,4.57
2022-08-26T05:31:33.881Z,4.33
2022-08-26T05:36:37.840Z,4.87
2022-08-26T05:41:44.885Z,3.63
2022-08-26T05:46:51.265Z,4.47
2022-08-26T05:51:54.948Z,4.03
2022-08-26T05:56:58.595Z,3.83
2022-08-26T06:02:04.682Z,3.73
2022-08-26T06:07:12.337Z,3.87
2022-08-26T06:12:17.264Z,3.97
2022-08-26T06:17:23.552Z,3.87
2022-08-26T06:22:46.057Z,3.50
2022-08-26T06:27:50.881Z,3.90
2022-08-26T06:32:55.946Z,2.97
2022-08-26T06:37:59.704Z,2.53
2022-08-26T06:43:03.357Z,2.70
2022-08-26T06:48:08.702Z,2.57
2022-08-26T06:53:14.736Z,2.43
2022-08-26T06:58:19.403Z,2.93
2022-08-26T07:03:24.783Z,3.30
2022-08-26T07:08:28.530Z,2.80
2022-08-26T07:13:32.210Z,2.17
2022-08-26T07:18:38.786Z,2.60
2022-08-26T07:23:43.105Z,2.77
2022-08-26T07:28:50.522Z,2.50
2022-08-26T07:33:58.896Z,2.57
2022-08-26T07:39:04.234Z,2.87
2022-08-26T07:44:08.727Z,2.80
2022-08-26T07:49:15.684Z,3.13
2022-08-26T07:54:20.015Z,3.30
2022-08-26T07:59:28.217Z,2.70
2022-08-26T08:04:35.622Z,2.83
2022-08-26T08:09:40.770Z,3.93
2022-08-26T08:14:45.400Z,3.77
2022-08-26T08:19:50.442Z,3.57
2022-08-26T08:24:54.280Z,3.90
2022-08-26T08:29:58.269Z,3.80
2022-08-26T08:35:10.925Z,4.07
2022-08-26T08:40:18.104Z,3.70
2022-08-26T08:45:36.596Z,3.80
2022-08-26T08:50:45.864Z,3.23
2022-08-26T08:56:02.126Z,2.83
2022-08-26T09:01:09.799Z,3.00
2022-08-26T09:06:18.692Z,2.80
2022-08-26T09:11:22.454Z,2.47
2022-08-26T09:16:34.045Z,2.60
2022-08-26T09:21:40.184Z,3.40
2022-08-26T09:26:47.606Z,2.60
2022-08-26T09:31:53.271Z,2.50
2022-08-26T09:37:00.590Z,2.53
2022-08-26T09:42:11.282Z,2.60
2022-08-26T09:47:15.318Z,2.10
2022-08-26T09:52:23.424Z,2.23
2022-08-26T09:57:31.248Z,3.07
2022-08-26T10:02:47.862Z,2.83
2022-08-26T10:07:55.235Z,2.23
2022-08-26T10:13:07.610Z,2.67
2022-08-26T10:18:20.969Z,1.87
2022-08-26T10:23:32.169Z,2.17
2022-08-26T10:28:42.406Z,2.33
2022-08-26T10:33:48.277Z,2.10
2022-08-26T10:38:54.198Z,2.60
2022-08-26T10:44:00.249Z,2.60
2022-08-26T10:49:09.620Z,3.23
2022-08-26T10:54:20.273Z,4.40
2022-08-26T10:59:36.801Z,2.57
2022-08-26T11:04:55.708Z,2.43
2022-08-26T11:10:02.360Z,2.20
2022-08-26T11:15:09.779Z,2.60
2022-08-26T11:20:33.993Z,2.53
2022-08-26T11:26:16.471Z,3.63
2022-08-26T11:31:57.679Z,3.07
2022-08-26T11:37:05.027Z,2.50
2022-08-26T11:42:23.519Z,2.50
2022-08-26T11:47:32.869Z,2.50
2022-08-26T11:52:37.037Z,4.03
2022-08-26T11:57:47.821Z,5.30
2022-08-26T12:02:52.686Z,7.57
2022-08-26T12:07:58.023Z,6.37
2022-08-26T12:13:05.177Z,6.57
2022-08-26T12:18:28.836Z,5.87
2022-08-26T12:23:45.887Z,4.87
2022-08-26T12:28:56.034Z,5.30
2022-08-26T12:34:03.138Z,4.57
2022-08-26T12:39:09.635Z,3.90
2022-08-26T12:44:42.378Z,3.63
2022-08-26T12:50:05.105Z,4.17
2022-08-26T12:55:20.678Z,3.07
2022-08-26T13:00:31.661Z,2.87
2022-08-26T13:05:37.841Z,3.20
2022-08-26T13:10:44.310Z,3.00
2022-08-26T13:15:49.998Z,3.27
2022-08-26T13:20:53.796Z,3.40
2022-08-26T13:25:57.416Z,3.23
2022-08-26T13:31:02.546Z,3.20
2022-08-26T13:36:06.945Z,2.10
2022-08-26T13:41:10.566Z,2.10
2022-08-26T13:46:20.169Z,1.60
2022-08-26T13:51:24.494Z,1.70
2022-08-26T13:56:29.811Z,3.10
2022-08-26T14:01:36.037Z,1.23
2022-08-26T14:06:39.732Z,1.43
2022-08-26T14:11:54.037Z,2.60
2022-08-26T14:17:00.604Z,1.73
2022-08-26T14:22:05.642Z,1.00
2022-08-26T14:27:09.614Z,0.80
2022-08-26T14:32:21.674Z,1.47
2022-08-26T14:37:26.292Z,0.77
2022-08-26T14:42:31.484Z,1.23
2022-08-26T14:47:36.765Z,0.97
2022-08-26T14:52:54.226Z,0.60
2022-08-26T14:57:57.908Z,0.80
2022-08-26T15:03:03.082Z,1.50
2022-08-26T15:08:10.355Z,0.40
2022-08-26T15:13:14.295Z,1.53
2022-08-26T15:18:19.292Z,0.80
2022-08-26T15:23:23.011Z,0.73
2022-08-26T15:28:26.771Z,0.97
2022-08-26T15:33:31.930Z,2.43
2022-08-26T15:38:38.349Z,0.47
2022-08-26T15:43:41.924Z,0.77
2022-08-26T15:48:47.431Z,0.77
2022-08-26T15:53:51.558Z,1.17
2022-08-26T15:58:56.096Z,0.80
2022-08-26T16:04:01.629Z,1.10
2022-08-26T16:09:06.729Z,1.10
2022-08-26T16:14:10.426Z,0.70
2022-08-26T16:19:15.803Z,1.10
2022-08-26T16:24:24.776Z,1.03
2022-08-26T16:29:31.501Z,1.73
2022-08-26T16:34:36.937Z,1.10
2022-08-26T16:39:44.999Z,1.40
2022-08-26T16:44:48.940Z,3.53
2022-08-26T16:49:54.116Z,0.97
2022-08-26T16:54:58.100Z,1.50
2022-08-26T17:00:04.969Z,1.27
2022-08-26T17:05:11.865Z,1.40
2022-08-26T17:10:15.486Z,1.60
2022-08-26T17:15:19.627Z,1.30
2022-08-26T17:20:26.386Z,1.50
2022-08-26T17:25:32.773Z,1.30
2022-08-26T17:30:36.700Z,1.40
2022-08-26T17:35:41.790Z,1.10
2022-08-26T17:40:45.399Z,1.07
2022-08-26T17:45:49.445Z,1.10
2022-08-26T17:50:55.323Z,0.77
2022-08-26T17:55:58.918Z,0.73
2022-08-26T18:01:02.925Z,0.70
2022-08-26T18:06:11.921Z,0.53
2022-08-26T18:11:19.173Z,0.60
2022-08-26T18:16:23.313Z,1.07
2022-08-26T18:21:29.112Z,0.60
2022-08-26T18:26:35.615Z,0.70
2022-08-26T18:31:39.304Z,0.60
2022-08-26T18:36:44.927Z,1.07
2022-08-26T18:41:52.331Z,0.73
2022-08-26T18:46:56.081Z,0.40
2022-08-26T18:52:01.303Z,0.70
2022-08-26T18:57:05.211Z,0.67
2022-08-26T19:02:10.928Z,0.50
2022-08-26T19:07:16.234Z,4.83
2022-08-26T19:12:19.897Z,0.60
2022-08-26T19:17:23.577Z,1.03
2022-08-26T19:22:28.570Z,0.50
2022-08-26T19:27:33.508Z,0.50
2022-08-26T19:32:37.394Z,0.80
2022-08-26T19:37:42.654Z,0.60
2022-08-26T19:42:46.302Z,0.73
2022-08-26T19:47:49.966Z,0.50
2022-08-26T19:52:55.284Z,0.80
2022-08-26T19:57:58.931Z,0.40
2022-08-26T20:03:03.240Z,0.50
2022-08-26T20:08:08.374Z,0.90
2022-08-26T20:13:24.054Z,0.67
2022-08-26T20:18:45.437Z,0.77
2022-08-26T20:23:51.342Z,0.73
2022-08-26T20:28:55.088Z,0.70
2022-08-26T20:33:59.376Z,0.70
2022-08-26T20:39:05.141Z,0.70
2022-08-26T20:44:09.336Z,0.60
2022-08-26T20:49:14.699Z,0.50
2022-08-26T20:54:21.016Z,0.83
2022-08-26T20:59:27.564Z,0.47
2022-08-26T21:04:31.356Z,0.60
2022-08-26T21:09:36.365Z,1.07
2022-08-26T21:14:41.026Z,0.60
2022-08-26T21:19:44.646Z,0.90
2022-08-26T21:24:49.729Z,0.77
2022-08-26T21:29:55.986Z,0.53
2022-08-26T21:35:00.980Z,0.60
2022-08-26T21:40:07.806Z,0.90
2022-08-26T21:45:12.181Z,1.73
2022-08-26T21:50:15.828Z,3.30
2022-08-26T21:55:20.845Z,0.67
2022-08-26T22:00:25.375Z,1.13
2022-08-26T22:05:29.252Z,0.73
2022-08-26T22:10:34.220Z,0.80
2022-08-26T22:15:40.425Z,0.43
2022-08-26T22:20:45.456Z,1.67
2022-08-26T22:25:51.391Z,1.00
2022-08-26T22:30:56.377Z,1.00
2022-08-26T22:35:59.913Z,1.27
2022-08-26T22:41:08.489Z,1.00
2022-08-26T22:46:17.505Z,0.50
2022-08-26T22:51:21.332Z,0.50
2022-08-26T22:56:26.418Z,0.50
2022-08-26T23:01:30.162Z,0.60
2022-08-26T23:06:35.961Z,0.93
2022-08-26T23:11:43.261Z,0.60
2022-08-26T23:16:47.433Z,0.60
2022-08-26T23:21:51.546Z,1.20
2022-08-26T23:26:56.548Z,0.40
2022-08-26T23:32:00.275Z,0.80
2022-08-26T23:37:06.720Z,2.07
2022-08-26T23:42:12.408Z,0.80
2022-08-26T23:47:16.064Z,0.87
2022-08-26T23:52:37.067Z,1.10
2022-08-26T23:57:42.367Z,0.97
